createdAt,value
2018-09-25T00:00:10.428Z,21.30
2018-09-25T00:00:42.197Z,21.30
2018-09-25T00:01:14.063Z,21.30
2018-09-25T00:01:45.950Z,21.30
2018-09-25T00:02:17.783Z,21.30
2018-09-25T00:02:49.600Z,21.30
2018-09-25T00:03:21.393Z,21.30
2018-09-25T00:03:53.204Z,21.30
2018-09-25T00:04:25.072Z,21.30
2018-09-25T00:04:56.865Z,21.30
2018-09-25T00:05:28.756Z,21.30
2018-09-25T00:06:00.627Z,21.30
2018-09-25T00:06:32.481Z,21.30
2018-09-25T00:07:04.291Z,21.30
2018-09-25T00:07:36.033Z,21.30
2018-09-25T00:08:07.943Z,21.30
2018-09-25T00:08:39.753Z,21.30
2018-09-25T00:09:11.553Z,21.30
2018-09-25T00:09:43.393Z,21.30
2018-09-25T00:10:15.263Z,21.30
2018-09-25T00:10:47.027Z,21.30
2018-09-25T00:11:18.788Z,21.30
2018-09-25T00:11:50.674Z,21.30
2018-09-25T00:12:22.462Z,21.30
2018-09-25T00:12:54.293Z,21.30
2018-09-25T00:13:26.173Z,21.30
2018-09-25T00:13:58.010Z,21.30
2018-09-25T00:14:29.910Z,21.30
2018-09-25T00:15:01.704Z,21.30
2018-09-25T00:15:33.604Z,21.30
2018-09-25T00:16:05.453Z,21.30
2018-09-25T00:16:37.248Z,21.30
2018-09-25T00:17:09.001Z,21.30
2018-09-25T00:17:40.865Z,21.30
2018-09-25T00:18:12.738Z,21.30
2018-09-25T00:18:44.505Z,21.30
2018-09-25T00:19:16.452Z,21.30
2018-09-25T00:19:48.324Z,21.30
2018-09-25T00:20:20.152Z,21.30
2018-09-25T00:20:52.024Z,21.30
2018-09-25T00:21:23.837Z,21.30
2018-09-25T00:21:55.674Z,21.30
2018-09-25T00:22:27.484Z,21.30
2018-09-25T00:22:59.259Z,21.30
2018-09-25T00:23:31.044Z,21.30
2018-09-25T00:24:02.836Z,21.30
2018-09-25T00:24:34.739Z,21.30
2018-09-25T00:25:06.520Z,21.30
2018-09-25T00:25:38.281Z,21.30
2018-09-25T00:26:10.233Z,21.20
2018-09-25T00:26:42.034Z,21.20
2018-09-25T00:27:13.995Z,21.30
2018-09-25T00:27:45.845Z,21.30
2018-09-25T00:28:17.658Z,21.30
2018-09-25T00:28:49.496Z,21.30
2018-09-25T00:29:21.290Z,21.30
2018-09-25T00:29:53.121Z,21.30
2018-09-25T00:30:24.899Z,21.30
2018-09-25T00:30:56.697Z,21.30
2018-09-25T00:31:28.535Z,21.30
2018-09-25T00:32:00.426Z,21.30
2018-09-25T00:32:32.250Z,21.30
2018-09-25T00:33:04.099Z,21.30
2018-09-25T00:33:35.876Z,21.30
2018-09-25T00:34:07.655Z,21.30
2018-09-25T00:34:39.518Z,21.30
2018-09-25T00:35:11.288Z,21.30
2018-09-25T00:35:43.149Z,21.30
2018-09-25T00:36:14.928Z,21.30
2018-09-25T00:36:47.079Z,21.20
2018-09-25T00:37:18.876Z,21.30
2018-09-25T00:37:50.660Z,21.20
2018-09-25T00:38:22.463Z,21.20
2018-09-25T00:38:54.231Z,21.30
2018-09-25T00:39:26.057Z,21.30
2018-09-25T00:39:57.890Z,21.30
2018-09-25T00:40:29.696Z,21.20
2018-09-25T00:41:01.497Z,21.20
2018-09-25T00:41:33.316Z,21.30
2018-09-25T00:42:05.186Z,21.20
2018-09-25T00:42:37.091Z,21.20
2018-09-25T00:43:08.926Z,21.20
2018-09-25T00:43:40.738Z,21.20
2018-09-25T00:44:12.582Z,21.20
2018-09-25T00:44:44.476Z,21.20
2018-09-25T00:45:16.321Z,21.20
2018-09-25T00:45:48.175Z,21.20
2018-09-25T00:46:19.974Z,21.20
2018-09-25T00:46:51.858Z,21.20
2018-09-25T00:47:23.738Z,21.20
2018-09-25T00:47:55.617Z,21.20
2018-09-25T00:48:27.448Z,21.20
2018-09-25T00:48:59.229Z,21.20
2018-09-25T00:49:31.055Z,21.20
2018-09-25T00:50:02.852Z,21.20
2018-09-25T00:50:34.703Z,21.20
2018-09-25T00:51:06.518Z,21.20
2018-09-25T00:51:38.347Z,21.20
2018-09-25T00:52:10.259Z,21.20
2018-09-25T00:52:42.068Z,21.20
2018-09-25T00:53:13.838Z,21.20
2018-09-25T00:53:45.641Z,21.20
2018-09-25T00:54:17.478Z,21.20
2018-09-25T00:54:49.287Z,21.20
2018-09-25T00:55:21.187Z,21.20
2018-09-25T00:55:53.038Z,21.20
2018-09-25T00:56:24.831Z,21.20
2018-09-25T00:56:56.708Z,21.20
2018-09-25T00:57:28.525Z,21.20
2018-09-25T00:58:00.301Z,21.20
2018-09-25T00:58:32.258Z,21.20
2018-09-25T00:59:04.044Z,21.20
2018-09-25T00:59:35.832Z,21.20
2018-09-25T01:00:07.688Z,21.20
2018-09-25T01:00:39.533Z,21.20
2018-09-25T01:01:11.378Z,21.20
2018-09-25T01:01:43.200Z,21.20
2018-09-25T01:02:15.030Z,21.20
2018-09-25T01:02:46.848Z,21.20
2018-09-25T01:03:18.698Z,21.20
2018-09-25T01:03:50.529Z,21.20
2018-09-25T01:04:22.368Z,21.20
2018-09-25T01:04:54.157Z,21.20
2018-09-25T01:05:26.038Z,21.20
2018-09-25T01:05:57.890Z,21.20
2018-09-25T01:06:29.689Z,21.20
2018-09-25T01:07:01.513Z,21.20
2018-09-25T01:07:33.369Z,21.20
2018-09-25T01:08:05.257Z,21.20
2018-09-25T01:08:37.210Z,21.20
2018-09-25T01:09:09.015Z,21.20
2018-09-25T01:09:40.925Z,21.20
2018-09-25T01:10:12.726Z,21.20
2018-09-25T01:10:44.539Z,21.20
2018-09-25T01:11:16.300Z,21.20
2018-09-25T01:11:48.129Z,21.20
2018-09-25T01:12:19.919Z,21.20
2018-09-25T01:12:51.808Z,21.20
2018-09-25T01:13:23.597Z,21.20
2018-09-25T01:13:55.468Z,21.20
2018-09-25T01:14:27.297Z,21.20
2018-09-25T01:14:59.144Z,21.20
2018-09-25T01:15:30.891Z,21.20
2018-09-25T01:16:02.744Z,21.20
2018-09-25T01:16:34.622Z,21.10
2018-09-25T01:17:06.579Z,21.20
2018-09-25T01:17:38.489Z,21.20
2018-09-25T01:18:10.379Z,21.20
2018-09-25T01:18:42.187Z,21.20
2018-09-25T01:19:14.040Z,21.20
2018-09-25T01:19:45.869Z,21.20
2018-09-25T01:20:17.684Z,21.20
2018-09-25T01:20:49.520Z,21.20
2018-09-25T01:21:21.354Z,21.20
2018-09-25T01:21:53.200Z,21.20
2018-09-25T01:22:25.150Z,21.20
2018-09-25T01:22:57.005Z,21.20
2018-09-25T01:23:28.770Z,21.20
2018-09-25T01:24:00.553Z,21.20
2018-09-25T01:24:32.341Z,21.10
2018-09-25T01:25:04.157Z,21.20
2018-09-25T01:25:35.990Z,21.10
2018-09-25T01:26:07.811Z,21.10
2018-09-25T01:26:39.781Z,21.10
2018-09-25T01:27:11.575Z,21.10
2018-09-25T01:27:43.422Z,21.10
2018-09-25T01:28:15.220Z,21.10
2018-09-25T01:28:47.132Z,21.10
2018-09-25T01:29:18.922Z,21.20
2018-09-25T01:29:50.747Z,21.10
2018-09-25T01:30:22.602Z,21.10
2018-09-25T01:30:54.399Z,21.20
2018-09-25T01:31:26.226Z,21.20
2018-09-25T01:31:58.014Z,21.20
2018-09-25T01:32:29.814Z,21.20
2018-09-25T01:33:01.665Z,21.20
2018-09-25T01:33:33.434Z,21.10
2018-09-25T01:34:05.333Z,21.10
2018-09-25T01:34:37.109Z,21.20
2018-09-25T01:35:08.947Z,21.10
2018-09-25T01:35:40.795Z,21.10
2018-09-25T01:36:12.605Z,21.10
2018-09-25T01:36:44.504Z,21.10
2018-09-25T01:37:16.384Z,21.10
2018-09-25T01:37:48.154Z,21.10
2018-09-25T01:38:19.935Z,21.10
2018-09-25T01:38:51.747Z,21.10
2018-09-25T01:39:23.546Z,21.10
2018-09-25T01:39:55.361Z,21.10
2018-09-25T01:40:27.219Z,21.10
2018-09-25T01:40:59.006Z,21.10
2018-09-25T01:41:30.815Z,21.10
2018-09-25T01:42:02.644Z,21.10
2018-09-25T01:42:34.476Z,21.10
2018-09-25T01:43:06.253Z,21.10
2018-09-25T01:43:38.046Z,21.10
2018-09-25T01:44:09.857Z,21.10
2018-09-25T01:44:41.638Z,21.10
2018-09-25T01:45:13.416Z,21.10
2018-09-25T01:45:45.201Z,21.10
2018-09-25T01:46:17.002Z,21.10
2018-09-25T01:46:48.863Z,21.10
2018-09-25T01:47:20.751Z,21.10
2018-09-25T01:47:52.531Z,21.10
2018-09-25T01:48:24.343Z,21.10
2018-09-25T01:48:56.136Z,21.10
2018-09-25T01:49:27.939Z,21.10
2018-09-25T01:49:59.933Z,21.10
2018-09-25T01:50:31.724Z,21.10
2018-09-25T01:51:03.529Z,21.10
2018-09-25T01:51:35.421Z,21.10
2018-09-25T01:52:07.238Z,21.10
2018-09-25T01:52:39.083Z,21.10
2018-09-25T01:53:10.950Z,21.10
2018-09-25T01:53:42.825Z,21.10
2018-09-25T01:54:14.746Z,21.10
2018-09-25T01:54:46.600Z,21.10
2018-09-25T01:55:18.530Z,21.10
2018-09-25T01:55:50.392Z,21.10
2018-09-25T01:56:22.230Z,21.10
2018-09-25T01:56:54.066Z,21.10
2018-09-25T01:57:25.932Z,21.10
2018-09-25T01:57:57.766Z,21.10
2018-09-25T01:58:29.702Z,21.10
2018-09-25T01:59:01.519Z,21.10
2018-09-25T01:59:33.328Z,21.10
2018-09-25T02:00:05.263Z,21.10
2018-09-25T02:00:37.123Z,21.10
2018-09-25T02:01:08.914Z,21.10
2018-09-25T02:01:40.706Z,21.10
2018-09-25T02:02:12.523Z,21.10
2018-09-25T02:02:44.424Z,21.10
2018-09-25T02:03:16.322Z,21.10
2018-09-25T02:03:48.154Z,21.10
2018-09-25T02:04:19.984Z,21.10
2018-09-25T02:04:51.843Z,21.10
2018-09-25T02:05:23.698Z,21.10
2018-09-25T02:05:55.615Z,21.10
2018-09-25T02:06:27.457Z,21.10
2018-09-25T02:06:59.324Z,21.10
2018-09-25T02:07:31.185Z,21.10
2018-09-25T02:08:03.071Z,21.00
2018-09-25T02:08:34.832Z,21.10
2018-09-25T02:09:06.745Z,21.10
2018-09-25T02:09:38.606Z,21.10
2018-09-25T02:10:10.465Z,21.10
2018-09-25T02:10:42.211Z,21.10
2018-09-25T02:11:13.997Z,21.00
2018-09-25T02:11:45.775Z,21.00
2018-09-25T02:12:17.626Z,21.10
2018-09-25T02:12:49.466Z,21.00
2018-09-25T02:13:21.259Z,21.00
2018-09-25T02:13:53.068Z,21.00
2018-09-25T02:14:24.860Z,21.00
2018-09-25T02:14:56.669Z,21.00
2018-09-25T02:15:28.471Z,21.00
2018-09-25T02:16:00.243Z,21.00
2018-09-25T02:16:32.054Z,21.00
2018-09-25T02:17:03.816Z,21.10
2018-09-25T02:17:35.575Z,21.00
2018-09-25T02:18:07.379Z,21.00
2018-09-25T02:18:39.199Z,21.00
2018-09-25T02:19:10.980Z,21.00
2018-09-25T02:19:42.798Z,21.00
2018-09-25T02:20:14.597Z,21.00
2018-09-25T02:20:46.378Z,21.00
2018-09-25T02:21:18.148Z,21.00
2018-09-25T02:21:49.940Z,21.00
2018-09-25T02:22:21.786Z,21.00
2018-09-25T02:22:53.649Z,21.10
2018-09-25T02:23:25.434Z,21.00
2018-09-25T02:23:57.225Z,21.00
2018-09-25T02:24:29.036Z,21.00
2018-09-25T02:25:00.960Z,21.00
2018-09-25T02:25:32.752Z,21.00
2018-09-25T02:26:04.517Z,21.00
2018-09-25T02:26:36.294Z,21.00
2018-09-25T02:27:08.069Z,21.00
2018-09-25T02:27:39.843Z,21.00
2018-09-25T02:28:11.721Z,21.00
2018-09-25T02:28:43.542Z,21.00
2018-09-25T02:29:15.370Z,21.00
2018-09-25T02:29:47.187Z,21.00
2018-09-25T02:30:19.204Z,21.00
2018-09-25T02:30:50.979Z,21.00
2018-09-25T02:31:22.782Z,21.00
2018-09-25T02:31:54.605Z,21.00
2018-09-25T02:32:26.482Z,21.00
2018-09-25T02:32:58.265Z,21.00
2018-09-25T02:33:30.062Z,21.00
2018-09-25T02:34:01.839Z,21.00
2018-09-25T02:34:33.610Z,21.00
2018-09-25T02:35:05.395Z,21.00
2018-09-25T02:35:37.183Z,21.00
2018-09-25T02:36:08.984Z,21.00
2018-09-25T02:36:40.971Z,21.00
2018-09-25T02:37:12.833Z,21.00
2018-09-25T02:37:44.595Z,21.00
2018-09-25T02:38:16.412Z,21.00
2018-09-25T02:38:48.220Z,21.00
2018-09-25T02:39:20.033Z,21.00
2018-09-25T02:39:51.923Z,21.00
2018-09-25T02:40:23.744Z,21.00
2018-09-25T02:40:55.568Z,21.00
2018-09-25T02:41:27.413Z,21.00
2018-09-25T02:41:59.246Z,21.00
2018-09-25T02:42:31.057Z,21.00
2018-09-25T02:43:02.924Z,21.00
2018-09-25T02:43:34.725Z,21.00
2018-09-25T02:44:06.589Z,21.00
2018-09-25T02:44:38.503Z,21.00
2018-09-25T02:45:10.361Z,21.00
2018-09-25T02:45:42.228Z,21.00
2018-09-25T02:46:14.025Z,21.00
2018-09-25T02:46:45.854Z,21.00
2018-09-25T02:47:17.651Z,21.00
2018-09-25T02:47:49.414Z,21.00
2018-09-25T02:48:21.275Z,21.00
2018-09-25T02:48:53.214Z,21.00
2018-09-25T02:49:25.065Z,21.00
2018-09-25T02:49:57.021Z,21.00
2018-09-25T02:50:28.895Z,21.00
2018-09-25T02:51:00.713Z,20.90
2018-09-25T02:51:32.596Z,20.90
2018-09-25T02:52:04.385Z,20.90
2018-09-25T02:52:36.216Z,20.90
2018-09-25T02:53:08.110Z,20.90
2018-09-25T02:53:39.995Z,20.90
2018-09-25T02:54:11.760Z,20.90
2018-09-25T02:54:43.667Z,20.90
2018-09-25T02:55:15.465Z,20.90
2018-09-25T02:55:47.290Z,20.90
2018-09-25T02:56:19.193Z,20.90
2018-09-25T02:56:51.002Z,20.90
2018-09-25T02:57:22.856Z,20.90
2018-09-25T02:57:54.699Z,20.90
2018-09-25T02:58:26.536Z,20.90
2018-09-25T02:58:58.456Z,20.90
2018-09-25T02:59:30.214Z,20.90
2018-09-25T03:00:02.124Z,20.90
2018-09-25T03:00:33.987Z,20.90
2018-09-25T03:01:05.798Z,20.90
2018-09-25T03:01:37.588Z,20.90
2018-09-25T03:02:09.391Z,20.90
2018-09-25T03:02:41.226Z,20.90
2018-09-25T03:03:13.029Z,20.90
2018-09-25T03:03:44.817Z,20.90
2018-09-25T03:04:16.576Z,20.90
2018-09-25T03:04:48.411Z,20.90
2018-09-25T03:05:20.167Z,20.90
2018-09-25T03:05:51.948Z,20.90
2018-09-25T03:06:23.837Z,20.90
2018-09-25T03:06:55.630Z,20.90
2018-09-25T03:07:27.548Z,20.90
2018-09-25T03:07:59.480Z,20.90
2018-09-25T03:08:31.328Z,20.90
2018-09-25T03:09:03.247Z,20.90
2018-09-25T03:09:35.060Z,20.90
2018-09-25T03:10:06.915Z,20.90
2018-09-25T03:10:38.769Z,20.90
2018-09-25T03:11:10.509Z,20.90
2018-09-25T03:11:42.339Z,20.90
2018-09-25T03:12:14.122Z,20.90
2018-09-25T03:12:45.959Z,20.90
2018-09-25T03:13:17.809Z,20.90
2018-09-25T03:13:49.624Z,20.90
2018-09-25T03:14:21.438Z,20.90
2018-09-25T03:14:53.241Z,20.90
2018-09-25T03:15:25.085Z,20.90
2018-09-25T03:15:56.950Z,20.90
2018-09-25T03:16:28.798Z,20.90
2018-09-25T03:17:00.648Z,20.90
2018-09-25T03:17:32.683Z,20.90
2018-09-25T03:18:04.528Z,20.90
2018-09-25T03:18:36.499Z,20.90
2018-09-25T03:19:08.434Z,20.90
2018-09-25T03:19:40.269Z,20.90
2018-09-25T03:20:12.156Z,20.90
2018-09-25T03:20:44.020Z,20.90
2018-09-25T03:21:15.843Z,20.90
2018-09-25T03:21:47.662Z,20.90
2018-09-25T03:22:19.524Z,20.90
2018-09-25T03:22:51.350Z,20.90
2018-09-25T03:23:23.281Z,20.90
2018-09-25T03:23:55.153Z,20.90
2018-09-25T03:24:27.070Z,20.90
2018-09-25T03:24:58.873Z,20.90
2018-09-25T03:25:30.751Z,20.90
2018-09-25T03:26:02.560Z,20.90
2018-09-25T03:26:34.351Z,20.90
2018-09-25T03:27:06.221Z,20.90
2018-09-25T03:27:38.100Z,20.90
2018-09-25T03:28:10.011Z,20.90
2018-09-25T03:28:41.812Z,20.90
2018-09-25T03:29:13.600Z,20.90
2018-09-25T03:29:45.395Z,20.90
2018-09-25T03:30:17.275Z,20.90
2018-09-25T03:30:49.050Z,20.90
2018-09-25T03:31:20.811Z,20.90
2018-09-25T03:31:52.685Z,20.90
2018-09-25T03:32:24.558Z,20.90
2018-09-25T03:32:56.382Z,20.90
2018-09-25T03:33:28.224Z,20.90
2018-09-25T03:34:00.031Z,20.90
2018-09-25T03:34:31.923Z,20.90
2018-09-25T03:35:03.735Z,20.90
2018-09-25T03:35:35.557Z,20.90
2018-09-25T03:36:07.492Z,20.90
2018-09-25T03:36:39.373Z,20.90
2018-09-25T03:37:11.236Z,20.90
2018-09-25T03:37:43.091Z,20.90
2018-09-25T03:38:14.989Z,20.90
2018-09-25T03:38:46.832Z,20.80
2018-09-25T03:39:18.695Z,20.90
2018-09-25T03:39:50.480Z,20.90
2018-09-25T03:40:22.258Z,20.80
2018-09-25T03:40:54.047Z,20.90
2018-09-25T03:41:25.942Z,20.80
2018-09-25T03:41:57.837Z,20.90
2018-09-25T03:42:29.632Z,20.80
2018-09-25T03:43:01.476Z,20.80
2018-09-25T03:43:33.291Z,20.90
2018-09-25T03:44:05.142Z,20.90
2018-09-25T03:44:36.901Z,20.90
2018-09-25T03:45:08.779Z,20.80
2018-09-25T03:45:40.578Z,20.80
2018-09-25T03:46:12.391Z,20.80
2018-09-25T03:46:44.262Z,20.80
2018-09-25T03:47:16.013Z,20.80
2018-09-25T03:47:47.827Z,20.80
2018-09-25T03:48:19.696Z,20.80
2018-09-25T03:48:51.658Z,20.70
2018-09-25T03:49:23.434Z,20.80
2018-09-25T03:49:55.230Z,20.80
2018-09-25T03:50:27.257Z,20.80
2018-09-25T03:50:59.115Z,20.80
2018-09-25T03:51:30.926Z,20.80
2018-09-25T03:52:02.689Z,20.80
2018-09-25T03:52:34.609Z,20.80
2018-09-25T03:53:06.495Z,20.80
2018-09-25T03:53:38.375Z,20.80
2018-09-25T03:54:10.255Z,20.80
2018-09-25T03:54:42.044Z,20.80
2018-09-25T03:55:13.808Z,20.80
2018-09-25T03:55:45.701Z,20.80
2018-09-25T03:56:17.465Z,20.80
2018-09-25T03:56:49.224Z,20.80
2018-09-25T03:57:21.063Z,20.80
2018-09-25T03:57:52.926Z,20.80
2018-09-25T03:58:24.707Z,20.80
2018-09-25T03:58:56.553Z,20.80
2018-09-25T03:59:28.548Z,20.80
2018-09-25T04:00:00.311Z,20.80
2018-09-25T04:00:32.176Z,20.80
2018-09-25T04:01:03.970Z,20.80
2018-09-25T04:01:35.827Z,20.80
2018-09-25T04:02:07.630Z,20.80
2018-09-25T04:02:39.479Z,20.80
2018-09-25T04:03:11.300Z,20.80
2018-09-25T04:03:43.090Z,20.80
2018-09-25T04:04:14.903Z,20.80
2018-09-25T04:04:46.790Z,20.70
2018-09-25T04:05:18.598Z,20.80
2018-09-25T04:05:50.390Z,20.80
2018-09-25T04:06:22.332Z,20.70
2018-09-25T04:06:54.168Z,20.80
2018-09-25T04:07:26.048Z,20.80
2018-09-25T04:07:57.911Z,20.80
2018-09-25T04:08:29.780Z,20.80
2018-09-25T04:09:01.561Z,20.70
2018-09-25T04:09:33.367Z,20.70
2018-09-25T04:10:05.150Z,20.70
2018-09-25T04:10:36.996Z,20.70
2018-09-25T04:11:08.862Z,20.70
2018-09-25T04:11:40.696Z,20.70
2018-09-25T04:12:12.520Z,20.70
2018-09-25T04:12:44.334Z,20.80
2018-09-25T04:13:16.142Z,20.80
2018-09-25T04:13:48.089Z,20.80
2018-09-25T04:14:19.867Z,20.70
2018-09-25T04:14:51.810Z,20.80
2018-09-25T04:15:23.693Z,20.80
2018-09-25T04:15:55.494Z,20.80
2018-09-25T04:16:27.273Z,20.80
2018-09-25T04:16:59.103Z,20.70
2018-09-25T04:17:30.964Z,20.70
2018-09-25T04:18:02.851Z,20.70
2018-09-25T04:18:34.671Z,20.70
2018-09-25T04:19:06.522Z,20.70
2018-09-25T04:19:38.474Z,20.80
2018-09-25T04:20:10.366Z,20.80
2018-09-25T04:20:42.201Z,20.80
2018-09-25T04:21:14.046Z,20.70
2018-09-25T04:21:45.868Z,20.70
2018-09-25T04:22:17.686Z,20.70
2018-09-25T04:22:49.690Z,20.70
2018-09-25T04:23:21.483Z,20.70
2018-09-25T04:23:53.333Z,20.70
2018-09-25T04:24:25.090Z,20.70
2018-09-25T04:24:56.895Z,20.70
2018-09-25T04:25:28.702Z,20.70
2018-09-25T04:26:00.574Z,20.70
2018-09-25T04:26:32.353Z,20.70
2018-09-25T04:27:04.116Z,20.70
2018-09-25T04:27:35.982Z,20.70
2018-09-25T04:28:07.738Z,20.70
2018-09-25T04:28:39.566Z,20.70
2018-09-25T04:29:11.417Z,20.70
2018-09-25T04:29:43.249Z,20.70
2018-09-25T04:30:15.017Z,20.70
2018-09-25T04:30:46.779Z,20.70
2018-09-25T04:31:18.548Z,20.70
2018-09-25T04:31:50.337Z,20.70
2018-09-25T04:32:22.108Z,20.70
2018-09-25T04:32:53.862Z,20.70
2018-09-25T04:33:25.681Z,20.80
2018-09-25T04:33:57.460Z,20.70
2018-09-25T04:34:29.244Z,20.70
2018-09-25T04:35:01.067Z,20.70
2018-09-25T04:35:33.090Z,20.70
2018-09-25T04:36:04.867Z,20.70
2018-09-25T04:36:36.648Z,20.70
2018-09-25T04:37:08.465Z,20.70
2018-09-25T04:37:40.225Z,20.70
2018-09-25T04:38:11.995Z,20.70
2018-09-25T04:38:43.836Z,20.70
2018-09-25T04:39:15.604Z,20.70
2018-09-25T04:39:47.378Z,20.70
2018-09-25T04:40:19.141Z,20.70
2018-09-25T04:40:50.966Z,20.70
2018-09-25T04:41:22.793Z,20.70
2018-09-25T04:41:54.573Z,20.70
2018-09-25T04:42:26.464Z,20.70
2018-09-25T04:42:58.238Z,20.70
2018-09-25T04:43:30.093Z,20.70
2018-09-25T04:44:01.974Z,20.70
2018-09-25T04:44:33.727Z,20.70
2018-09-25T04:45:05.547Z,20.70
2018-09-25T04:45:37.310Z,20.70
2018-09-25T04:46:09.113Z,20.70
2018-09-25T04:46:40.894Z,20.80
2018-09-25T04:47:12.712Z,20.80
2018-09-25T04:47:44.488Z,20.80
2018-09-25T04:48:16.256Z,20.80
2018-09-25T04:48:48.151Z,20.70
2018-09-25T04:49:19.962Z,20.80
2018-09-25T04:49:51.734Z,20.80
2018-09-25T04:50:23.553Z,20.80
2018-09-25T04:50:55.376Z,20.80
2018-09-25T04:51:27.303Z,20.80
2018-09-25T04:51:59.133Z,20.70
2018-09-25T04:52:30.921Z,20.70
2018-09-25T04:53:02.723Z,20.60
2018-09-25T04:53:34.591Z,20.70
2018-09-25T04:54:06.375Z,20.70
2018-09-25T04:54:38.193Z,20.70
2018-09-25T04:55:10.060Z,20.70
2018-09-25T04:55:41.983Z,20.80
2018-09-25T04:56:13.805Z,20.70
2018-09-25T04:56:45.566Z,20.80
2018-09-25T04:57:17.377Z,20.70
2018-09-25T04:57:49.250Z,20.80
2018-09-25T04:58:21.005Z,20.70
2018-09-25T04:58:52.758Z,20.70
2018-09-25T04:59:24.564Z,20.70
2018-09-25T04:59:56.471Z,20.70
2018-09-25T05:00:28.264Z,20.70
2018-09-25T05:01:00.121Z,20.70
2018-09-25T05:01:32.004Z,20.70
2018-09-25T05:02:03.816Z,20.60
2018-09-25T05:02:35.661Z,20.70
2018-09-25T05:03:07.427Z,20.70
2018-09-25T05:03:39.692Z,20.70
2018-09-25T05:04:11.581Z,20.70
2018-09-25T05:04:43.441Z,20.70
2018-09-25T05:05:15.320Z,20.70
2018-09-25T05:05:47.260Z,20.70
2018-09-25T05:06:19.136Z,20.70
2018-09-25T05:06:50.965Z,20.70
2018-09-25T05:07:22.942Z,20.70
2018-09-25T05:07:54.741Z,20.60
2018-09-25T05:08:26.555Z,20.70
2018-09-25T05:08:58.352Z,20.70
2018-09-25T05:09:30.245Z,20.70
2018-09-25T05:10:02.150Z,20.70
2018-09-25T05:10:33.962Z,20.60
2018-09-25T05:11:05.761Z,20.70
2018-09-25T05:11:37.652Z,20.70
2018-09-25T05:12:09.488Z,20.70
2018-09-25T05:12:41.292Z,20.70
2018-09-25T05:13:13.152Z,20.60
2018-09-25T05:13:44.947Z,20.70
2018-09-25T05:14:16.708Z,20.70
2018-09-25T05:14:48.563Z,20.70
2018-09-25T05:15:20.359Z,20.70
2018-09-25T05:15:52.157Z,20.60
2018-09-25T05:16:24.007Z,20.70
2018-09-25T05:16:55.797Z,20.70
2018-09-25T05:17:27.584Z,20.70
2018-09-25T05:17:59.434Z,20.70
2018-09-25T05:18:31.165Z,20.70
2018-09-25T05:19:03.026Z,20.70
2018-09-25T05:19:34.851Z,20.70
2018-09-25T05:20:06.662Z,20.70
2018-09-25T05:20:38.901Z,20.70
2018-09-25T05:21:10.791Z,20.70
2018-09-25T05:21:42.626Z,20.70
2018-09-25T05:22:14.505Z,20.60
2018-09-25T05:22:46.392Z,20.70
2018-09-25T05:23:18.291Z,20.70
2018-09-25T05:23:50.166Z,20.70
2018-09-25T05:24:21.977Z,20.70
2018-09-25T05:24:53.822Z,20.70
2018-09-25T05:25:25.603Z,20.60
2018-09-25T05:25:57.414Z,20.70
2018-09-25T05:26:29.283Z,20.70
2018-09-25T05:27:01.072Z,20.70
2018-09-25T05:27:32.913Z,20.60
2018-09-25T05:28:04.711Z,20.70
2018-09-25T05:28:36.530Z,20.70
2018-09-25T05:29:08.361Z,20.70
2018-09-25T05:29:40.212Z,20.70
2018-09-25T05:35:02.082Z,20.60
2018-09-25T05:35:33.924Z,20.50
2018-09-25T05:36:05.753Z,20.50
2018-09-25T05:36:37.743Z,20.50
2018-09-25T05:37:09.603Z,20.40
2018-09-25T05:37:41.534Z,20.40
2018-09-25T05:38:13.323Z,20.40
2018-09-25T05:38:45.161Z,20.40
2018-09-25T05:39:16.962Z,20.40
2018-09-25T05:39:48.754Z,20.40
2018-09-25T05:40:20.571Z,20.50
2018-09-25T05:40:52.424Z,20.50
2018-09-25T05:41:24.319Z,20.60
2018-09-25T05:41:56.267Z,20.60
2018-09-25T05:42:28.077Z,20.60
2018-09-25T05:42:59.857Z,20.60
2018-09-25T05:43:31.706Z,20.60
2018-09-25T05:44:03.551Z,20.60
2018-09-25T05:44:35.364Z,20.60
2018-09-25T05:45:07.148Z,20.60
2018-09-25T05:45:39.015Z,20.60
2018-09-25T05:46:10.842Z,20.60
2018-09-25T05:46:42.627Z,20.70
2018-09-25T05:47:14.491Z,20.60
2018-09-25T05:47:46.378Z,20.70
2018-09-25T05:48:18.199Z,20.60
2018-09-25T05:48:50.164Z,20.60
2018-09-25T05:49:21.861Z,20.60
2018-09-25T05:49:53.717Z,20.60
2018-09-25T05:50:25.527Z,20.60
2018-09-25T05:50:57.311Z,20.60
2018-09-25T05:51:29.171Z,20.60
2018-09-25T05:52:01.034Z,20.60
2018-09-25T05:52:32.924Z,20.60
2018-09-25T05:53:04.762Z,20.60
2018-09-25T05:53:36.580Z,20.60
2018-09-25T05:54:08.442Z,20.60
2018-09-25T05:54:40.192Z,20.60
2018-09-25T05:55:12.073Z,20.60
2018-09-25T05:55:43.985Z,20.60
2018-09-25T05:56:15.725Z,20.60
2018-09-25T05:56:47.603Z,20.60
2018-09-25T05:57:19.418Z,20.60
2018-09-25T05:57:51.315Z,20.60
2018-09-25T05:58:23.070Z,20.60
2018-09-25T05:58:54.849Z,20.60
2018-09-25T05:59:26.673Z,20.60
2018-09-25T05:59:58.500Z,20.70
2018-09-25T06:00:30.303Z,20.70
2018-09-25T06:01:02.141Z,20.70
2018-09-25T06:01:33.883Z,20.70
2018-09-25T06:02:05.731Z,20.70
2018-09-25T06:02:37.540Z,20.70
2018-09-25T06:03:09.352Z,20.70
2018-09-25T06:03:41.233Z,20.70
2018-09-25T06:04:13.044Z,20.70
2018-09-25T06:04:44.815Z,20.70
2018-09-25T06:05:16.600Z,20.70
2018-09-25T06:05:48.357Z,20.70
2018-09-25T06:06:20.193Z,20.70
2018-09-25T06:06:52.097Z,20.70
2018-09-25T06:07:23.945Z,20.60
2018-09-25T06:07:55.698Z,20.70
2018-09-25T06:08:27.462Z,20.70
2018-09-25T06:08:59.292Z,20.70
2018-09-25T06:09:31.112Z,20.70
2018-09-25T06:10:02.925Z,20.70
2018-09-25T06:10:34.737Z,20.70
2018-09-25T06:11:06.508Z,20.70
2018-09-25T06:11:38.304Z,20.70
2018-09-25T06:12:10.094Z,20.70
2018-09-25T06:12:41.942Z,20.70
2018-09-25T06:13:13.774Z,20.70
2018-09-25T06:13:45.645Z,20.70
2018-09-25T06:14:17.466Z,20.70
2018-09-25T06:14:49.299Z,20.70
2018-09-25T06:15:21.073Z,20.70
2018-09-25T06:15:52.904Z,20.70
2018-09-25T06:16:24.673Z,20.70
2018-09-25T06:16:56.488Z,20.70
2018-09-25T06:17:28.407Z,20.70
2018-09-25T06:18:00.172Z,20.70
2018-09-25T06:18:31.956Z,20.70
2018-09-25T06:19:03.784Z,20.70
2018-09-25T06:19:35.558Z,20.70
2018-09-25T06:20:07.381Z,20.70
2018-09-25T06:20:39.185Z,20.70
2018-09-25T06:21:10.988Z,20.70
2018-09-25T06:21:42.785Z,20.70
2018-09-25T06:22:14.726Z,20.70
2018-09-25T06:22:46.644Z,20.70
2018-09-25T06:23:18.514Z,20.70
2018-09-25T06:23:50.351Z,20.70
2018-09-25T06:24:22.187Z,20.70
2018-09-25T06:24:54.040Z,20.80
2018-09-25T06:25:25.909Z,20.70
2018-09-25T06:25:57.711Z,20.70
2018-09-25T06:26:29.640Z,20.70
2018-09-25T06:27:01.496Z,20.70
2018-09-25T06:27:33.356Z,20.70
2018-09-25T06:28:05.142Z,20.70
2018-09-25T06:28:37.020Z,20.70
2018-09-25T06:29:08.872Z,20.70
2018-09-25T06:29:40.764Z,20.70
2018-09-25T06:30:12.564Z,20.80
2018-09-25T06:30:44.458Z,20.70
2018-09-25T06:31:16.221Z,20.80
2018-09-25T06:31:48.048Z,20.80
2018-09-25T06:32:19.899Z,20.80
2018-09-25T06:32:51.741Z,20.80
2018-09-25T06:33:23.529Z,20.80
2018-09-25T06:33:55.435Z,20.80
2018-09-25T06:34:27.190Z,20.80
2018-09-25T06:34:59.182Z,20.80
2018-09-25T06:35:30.914Z,20.80
2018-09-25T06:36:02.698Z,20.80
2018-09-25T06:36:34.509Z,20.80
2018-09-25T06:37:06.335Z,20.80
2018-09-25T06:37:38.118Z,20.80
2018-09-25T06:38:09.865Z,20.80
2018-09-25T06:38:41.761Z,20.80
2018-09-25T06:39:13.678Z,20.80
2018-09-25T06:39:45.485Z,20.80
2018-09-25T06:40:17.372Z,20.80
2018-09-25T06:40:49.160Z,20.80
2018-09-25T06:41:20.968Z,20.90
2018-09-25T06:41:52.736Z,20.80
2018-09-25T06:42:24.593Z,20.80
2018-09-25T06:42:56.388Z,20.80
2018-09-25T06:43:28.336Z,20.90
2018-09-25T06:44:00.144Z,20.80
2018-09-25T06:44:31.921Z,20.80
2018-09-25T06:45:03.830Z,20.80
2018-09-25T06:45:35.616Z,20.80
2018-09-25T06:46:07.524Z,20.80
2018-09-25T06:46:39.327Z,20.80
2018-09-25T06:47:11.196Z,20.80
2018-09-25T06:47:42.969Z,20.80
2018-09-25T06:48:14.793Z,20.90
2018-09-25T06:48:46.578Z,20.90
2018-09-25T06:49:18.405Z,20.90
2018-09-25T06:49:50.230Z,20.90
2018-09-25T06:50:22.036Z,20.80
2018-09-25T06:50:53.800Z,20.90
2018-09-25T06:51:25.572Z,20.80
2018-09-25T06:51:57.381Z,20.80
2018-09-25T06:52:29.190Z,20.80
2018-09-25T06:53:01.003Z,20.90
2018-09-25T06:53:32.900Z,20.90
2018-09-25T06:54:04.750Z,20.90
2018-09-25T06:54:36.621Z,20.90